Time;durP1;ratioP1;P1;durP2;ratioP2;P2;SDS_P1;SDS_P2;PMS_P1;PMS_P2;Temp;Humidity;BMP_temperature;BMP_pressure;BME280_temperature;BME280_humidity;BME280_pressure;Samples;Min_cycle;Max_cycle;Signal;HPM_P1;HPM_P2
2022/01/31 00:02:25;;;;;;;6.70;3.20;;;5.10;99.90;;;;;;5034912;28;20940;-80
2022/01/31 00:04:51;;;;;;;9.37;4.37;;;5.10;99.90;;;;;;5033845;28;20178;-80
2022/01/31 00:07:16;;;;;;;6.83;3.50;;;5.00;99.90;;;;;;5033929;28;20464;-79
2022/01/31 00:09:44;;;;;;;9.60;4.43;;;4.90;99.90;;;;;;5034233;28;20231;-80
2022/01/31 00:12:16;;;;;;;16.60;3.53;;;4.90;99.90;;;;;;5034324;28;20255;-80
2022/01/31 00:14:44;;;;;;;10.43;4.17;;;4.90;99.90;;;;;;5033968;28;20793;-79
2022/01/31 00:17:11;;;;;;;9.60;5.43;;;5.00;99.90;;;;;;5033807;28;20415;-79
2022/01/31 00:19:38;;;;;;;8.63;3.47;;;5.00;99.90;;;;;;5035838;28;20497;-80
2022/01/31 00:22:05;;;;;;;7.17;3.37;;;5.00;99.90;;;;;;5077815;22;20613;-83
2022/01/31 00:24:33;;;;;;;7.03;3.50;;;5.00;99.90;;;;;;5060757;28;20465;-82
2022/01/31 00:26:59;;;;;;;10.53;3.87;;;5.00;99.90;;;;;;5078828;28;20465;-83
2022/01/31 00:29:24;;;;;;;6.93;3.60;;;5.10;99.90;;;;;;5060625;28;20430;-83
2022/01/31 00:31:50;;;;;;;6.20;3.40;;;5.10;99.90;;;;;;5060277;28;20492;-83
2022/01/31 00:34:16;;;;;;;7.80;3.30;;;5.10;99.90;;;;;;5060105;28;20172;-82
2022/01/31 00:36:41;;;;;;;10.57;3.03;;;5.20;99.90;;;;;;5077968;28;20217;-82
2022/01/31 00:39:07;;;;;;;9.00;3.50;;;5.20;99.90;;;;;;5077917;28;20260;-83
2022/01/31 00:41:33;;;;;;;11.87;3.30;;;5.30;99.90;;;;;;5060097;28;20205;-82
2022/01/31 00:44:02;;;;;;;9.10;3.20;;;5.30;99.90;;;;;;5060563;28;20553;-83
2022/01/31 00:46:41;;;;;;;6.67;3.33;;;5.40;99.90;;;;;;5077661;28;20268;-83
2022/01/31 00:49:17;;;;;;;7.60;4.03;;;5.40;99.90;;;;;;5059835;28;20414;-82
2022/01/31 00:51:43;;;;;;;6.07;3.20;;;5.40;99.90;;;;;;5059570;28;20444;-83
2022/01/31 00:54:08;;;;;;;10.70;3.63;;;5.40;99.90;;;;;;5077279;28;20793;-82
2022/01/31 00:56:34;;;;;;;7.00;3.40;;;5.50;99.90;;;;;;5077338;28;20739;-82
2022/01/31 00:58:59;;;;;;;8.23;3.47;;;5.50;99.90;;;;;;5059047;28;20187;-84
2022/01/31 01:01:25;;;;;;;8.63;4.00;;;5.50;99.90;;;;;;5059081;28;20672;-84
2022/01/31 01:03:50;;;;;;;8.17;4.37;;;5.60;99.90;;;;;;5076878;28;20545;-82
2022/01/31 01:06:16;;;;;;;5.20;2.40;;;5.50;99.90;;;;;;5077023;28;20621;-82
2022/01/31 01:08:42;;;;;;;5.07;3.17;;;5.60;99.90;;;;;;5077259;28;20207;-83
2022/01/31 01:11:09;;;;;;;7.27;3.47;;;5.60;99.90;;;;;;5058854;28;20229;-84
2022/01/31 01:13:34;;;;;;;9.80;3.27;;;5.70;99.90;;;;;;5058554;28;20183;-82
2022/01/31 01:16:00;;;;;;;6.97;3.83;;;5.70;99.90;;;;;;5058753;28;20420;-83
2022/01/31 01:18:26;;;;;;;8.60;3.27;;;5.80;99.90;;;;;;5077005;28;20369;-83
2022/01/31 01:20:51;;;;;;;10.53;3.30;;;5.80;99.90;;;;;;5076565;28;20615;-82
2022/01/31 01:23:17;;;;;;;9.27;3.00;;;5.80;99.90;;;;;;5076823;28;20280;-82
2022/01/31 01:25:42;;;;;;;6.13;3.17;;;5.90;99.90;;;;;;5058287;28;20181;-83
2022/01/31 01:28:08;;;;;;;5.47;2.20;;;5.90;99.90;;;;;;5058089;28;20198;-82
2022/01/31 01:30:34;;;;;;;6.83;3.07;;;5.90;99.90;;;;;;5075243;28;20182;-83
2022/01/31 01:33:06;;;;;;;7.77;2.80;;;5.90;99.90;;;;;;5076470;28;20297;-84
2022/01/31 01:35:34;;;;;;;7.67;3.30;;;5.90;99.90;;;;;;5075976;28;20167;-81
2022/01/31 01:38:06;;;;;;;8.33;3.10;;;6.00;99.90;;;;;;5075712;28;20420;-82
2022/01/31 01:40:37;;;;;;;10.70;3.43;;;6.00;99.90;;;;;;5075818;28;20447;-83
2022/01/31 01:43:03;;;;;;;7.30;2.90;;;6.00;99.90;;;;;;5075736;28;20982;-82
2022/01/31 01:45:29;;;;;;;10.50;3.00;;;6.10;99.90;;;;;;5075945;28;20770;-83
2022/01/31 01:47:54;;;;;;;8.90;3.80;;;6.00;99.90;;;;;;5075487;28;20293;-82
2022/01/31 01:50:20;;;;;;;13.90;3.20;;;6.10;99.90;;;;;;5075579;28;20269;-81
2022/01/31 01:52:46;;;;;;;5.40;2.33;;;6.10;99.90;;;;;;5057213;28;20195;-81
2022/01/31 01:55:11;;;;;;;8.87;2.43;;;6.20;99.90;;;;;;5057035;28;20179;-82
2022/01/31 01:57:37;;;;;;;8.73;3.17;;;6.20;99.90;;;;;;5075304;28;20208;-82
2022/01/31 02:00:04;;;;;;;7.40;2.87;;;6.20;99.90;;;;;;5075298;28;20175;-81
2022/01/31 02:02:30;;;;;;;7.80;2.80;;;6.20;99.90;;;;;;5057203;28;20626;-81
2022/01/31 02:04:56;;;;;;;8.53;2.60;;;6.20;99.90;;;;;;5056822;28;20424;-81
2022/01/31 02:07:21;;;;;;;5.47;2.40;;;6.30;99.90;;;;;;5074990;28;20244;-83
2022/01/31 02:09:54;;;;;;;8.13;2.27;;;6.20;99.90;;;;;;5057114;28;20425;-82
2022/01/31 02:12:19;;;;;;;7.83;2.40;;;6.30;99.90;;;;;;5074671;28;20294;-83
2022/01/31 02:14:45;;;;;;;4.40;2.53;;;6.30;99.90;;;;;;5074952;28;20448;-81
2022/01/31 02:17:11;;;;;;;6.10;2.20;;;6.30;99.90;;;;;;5074471;28;20245;-81
2022/01/31 02:19:38;;;;;;;9.07;3.20;;;6.30;99.90;;;;;;5056254;28;20186;-83
2022/01/31 02:22:03;;;;;;;6.87;2.53;;;6.20;99.90;;;;;;5056004;28;20576;-82
2022/01/31 02:24:30;;;;;;;7.60;2.70;;;6.10;99.90;;;;;;5056482;28;20425;-81
2022/01/31 02:26:57;;;;;;;8.33;3.27;;;5.90;99.90;;;;;;5055947;28;20586;-83
2022/01/31 02:29:23;;;;;;;5.73;2.40;;;5.90;99.90;;;;;;5056195;28;20412;-81
2022/01/31 02:31:49;;;;;;;8.60;2.90;;;5.80;99.90;;;;;;5074180;28;20840;-81
2022/01/31 02:34:16;;;;;;;5.27;3.33;;;5.80;99.90;;;;;;5074171;28;20208;-81
2022/01/31 02:36:42;;;;;;;8.30;2.50;;;5.80;99.90;;;;;;5055881;28;20467;-81
2022/01/31 02:39:08;;;;;;;4.57;2.93;;;5.60;99.90;;;;;;5074528;28;20819;-82
2022/01/31 02:41:44;;;;;;;9.23;3.60;;;5.50;99.90;;;;;;5073987;28;20487;-81
2022/01/31 02:44:15;;;;;;;6.47;3.50;;;5.40;99.90;;;;;;5073989;28;20404;-80
2022/01/31 02:46:50;;;;;;;12.10;2.80;;;5.30;99.90;;;;;;5072830;28;20413;-80
2022/01/31 02:49:19;;;;;;;6.43;2.70;;;5.30;99.90;;;;;;5077166;28;20431;-82
2022/01/31 02:51:49;;;;;;;10.60;3.07;;;5.20;99.90;;;;;;5075238;28;20435;-81
2022/01/31 02:54:15;;;;;;;12.60;3.33;;;5.20;99.90;;;;;;5075384;28;20885;-81
2022/01/31 02:56:40;;;;;;;8.40;3.00;;;5.10;99.90;;;;;;5075264;28;20439;-82
2022/01/31 02:59:06;;;;;;;7.30;5.80;;;5.10;99.90;;;;;;5057456;28;20271;-81
2022/01/31 03:01:36;;;;;;;11.93;3.13;;;5.00;99.90;;;;;;5075533;28;20637;-81
2022/01/31 03:04:03;;;;;;;7.97;3.77;;;4.90;99.90;;;;;;5075226;28;20413;-81
2022/01/31 03:06:29;;;;;;;5.20;2.80;;;4.90;99.90;;;;;;5074539;28;20466;-81
2022/01/31 03:08:54;;;;;;;11.37;3.40;;;4.80;99.90;;;;;;5074565;28;20940;-81
2022/01/31 03:11:20;;;;;;;8.50;2.80;;;4.80;99.90;;;;;;5075218;28;20220;-82
2022/01/31 03:13:45;;;;;;;7.37;3.27;;;4.80;99.90;;;;;;5057555;28;20712;-82
2022/01/31 03:16:11;;;;;;;11.23;4.17;;;4.70;99.90;;;;;;5075410;28;20175;-82
2022/01/31 03:18:36;;;;;;;8.23;3.40;;;4.70;99.90;;;;;;5074837;28;20182;-81
2022/01/31 03:21:02;;;;;;;5.70;2.50;;;4.60;99.90;;;;;;5056242;28;20207;-80
2022/01/31 03:23:27;;;;;;;5.83;3.20;;;4.60;99.90;;;;;;5074488;28;20546;-80
2022/01/31 03:25:53;;;;;;;8.80;2.67;;;4.60;99.90;;;;;;5074627;28;20214;-82
2022/01/31 03:28:19;;;;;;;3.83;2.30;;;4.50;99.90;;;;;;5056054;28;20211;-81
2022/01/31 03:30:45;;;;;;;5.90;2.80;;;4.50;99.90;;;;;;5065410;22;20215;-77
2022/01/31 03:33:10;;;;;;;6.03;3.43;;;4.40;99.90;;;;;;5088998;28;20271;-77
2022/01/31 03:35:36;;;;;;;11.00;2.53;;;4.30;99.90;;;;;;5090026;28;20416;-77
2022/01/31 03:38:02;;;;;;;7.80;2.70;;;4.40;99.90;;;;;;5090355;28;20190;-79
2022/01/31 03:40:28;;;;;;;4.57;2.63;;;4.40;99.90;;;;;;5090173;28;20209;-79
2022/01/31 03:42:54;;;;;;;3.57;2.50;;;4.30;99.90;;;;;;5089590;28;20437;-78
2022/01/31 03:45:20;;;;;;;4.93;2.50;;;4.30;99.90;;;;;;5090421;28;20227;-78
2022/01/31 03:47:46;;;;;;;9.10;3.23;;;4.30;99.90;;;;;;5090865;28;20766;-78
2022/01/31 03:50:17;;;;;;;8.00;3.10;;;4.30;99.90;;;;;;5090666;28;20428;-78
2022/01/31 03:52:43;;;;;;;6.03;3.17;;;4.30;99.90;;;;;;5089057;28;20938;-76
2022/01/31 03:55:13;;;;;;;12.60;3.90;;;4.30;99.90;;;;;;5094935;28;21008;-78
2022/01/31 03:57:39;;;;;;;4.37;2.70;;;4.40;99.90;;;;;;5095715;28;20435;-78
2022/01/31 04:00:08;;;;;;;7.27;3.13;;;4.40;99.90;;;;;;5094832;28;20453;-77
2022/01/31 04:02:34;;;;;;;4.27;2.67;;;4.40;99.90;;;;;;5093880;28;20236;-78
2022/01/31 04:05:00;;;;;;;7.77;3.10;;;4.50;99.90;;;;;;5095494;28;20424;-78
2022/01/31 04:07:26;;;;;;;6.87;3.70;;;4.50;99.90;;;;;;5096763;28;20302;-79
2022/01/31 04:09:53;;;;;;;9.97;3.27;;;4.50;99.90;;;;;;5096236;28;20186;-78
2022/01/31 04:12:19;;;;;;;6.03;3.13;;;4.60;99.90;;;;;;5096527;28;20220;-79
2022/01/31 04:14:48;;;;;;;5.90;3.27;;;4.60;99.90;;;;;;5096587;28;20416;-79
2022/01/31 04:17:14;;;;;;;5.60;2.50;;;4.70;99.90;;;;;;5095566;28;20455;-78
2022/01/31 04:19:40;;;;;;;13.73;3.07;;;4.80;99.90;;;;;;5095141;28;20421;-78
2022/01/31 04:22:14;;;;;;;4.23;3.00;;;4.80;99.90;;;;;;5095317;28;20431;-77
2022/01/31 04:24:41;;;;;;;4.47;2.63;;;4.90;99.90;;;;;;5093464;28;20425;-79
2022/01/31 04:27:07;;;;;;;7.60;3.40;;;5.00;99.90;;;;;;5094356;28;20895;-79
2022/01/31 04:29:37;;;;;;;5.57;3.60;;;5.00;99.90;;;;;;5093570;28;20839;-79
2022/01/31 04:32:04;;;;;;;6.67;3.80;;;5.00;99.90;;;;;;5093612;28;20845;-78
2022/01/31 04:34:31;;;;;;;4.53;3.37;;;5.00;99.90;;;;;;5092997;28;20422;-78
2022/01/31 04:37:00;;;;;;;6.30;3.37;;;5.10;99.90;;;;;;5094707;28;20429;-79
2022/01/31 04:39:28;;;;;;;6.33;3.00;;;5.20;99.90;;;;;;5093998;28;20422;-78
2022/01/31 04:41:54;;;;;;;5.23;3.00;;;5.20;99.90;;;;;;5094154;28;20881;-78
2022/01/31 04:44:20;;;;;;;5.63;3.20;;;5.20;99.90;;;;;;5094046;28;20414;-78
2022/01/31 04:46:49;;;;;;;7.90;3.07;;;5.20;99.90;;;;;;5093106;28;20518;-79
2022/01/31 04:49:21;;;;;;;5.60;3.00;;;5.30;99.90;;;;;;5094571;28;20177;-78
2022/01/31 04:51:48;;;;;;;6.10;3.20;;;5.30;99.90;;;;;;5092712;28;20463;-79
2022/01/31 04:54:14;;;;;;;11.20;3.40;;;5.40;99.90;;;;;;5093793;28;20526;-79
2022/01/31 04:56:42;;;;;;;9.77;3.73;;;5.40;99.90;;;;;;5093797;28;20410;-79
2022/01/31 04:59:08;;;;;;;5.10;3.00;;;5.40;99.90;;;;;;5092107;28;20424;-79
2022/01/31 05:01:35;;;;;;;13.50;3.93;;;5.50;99.90;;;;;;5094676;28;20797;-78
2022/01/31 05:04:01;;;;;;;5.77;2.90;;;5.40;99.90;;;;;;5093523;28;20452;-78
2022/01/31 05:06:34;;;;;;;6.53;3.60;;;5.50;99.90;;;;;;5089368;28;20417;-78
2022/01/31 05:09:00;;;;;;;7.17;3.70;;;5.50;99.90;;;;;;5091113;28;20470;-79
2022/01/31 05:11:26;;;;;;;7.97;4.00;;;5.50;99.90;;;;;;5090696;28;20443;-78
2022/01/31 05:13:52;;;;;;;8.27;3.67;;;5.50;99.90;;;;;;5090613;28;20515;-79
2022/01/31 05:16:18;;;;;;;7.13;3.37;;;5.60;99.90;;;;;;5090552;28;20184;-77
2022/01/31 05:18:44;;;;;;;7.47;4.30;;;5.60;99.90;;;;;;5090661;28;20448;-79
2022/01/31 05:21:10;;;;;;;6.30;3.40;;;5.60;99.90;;;;;;5089721;28;20213;-79
2022/01/31 05:23:36;;;;;;;8.50;3.93;;;5.60;99.90;;;;;;5089501;28;20233;-78
2022/01/31 05:26:02;;;;;;;6.57;3.67;;;5.70;99.90;;;;;;5089297;28;20437;-78
2022/01/31 05:28:28;;;;;;;12.40;4.30;;;5.70;99.90;;;;;;5090094;28;20460;-79
2022/01/31 05:30:54;;;;;;;8.00;4.60;;;5.70;99.90;;;;;;5089166;28;20521;-78
2022/01/31 05:33:20;;;;;;;8.37;4.57;;;5.70;99.90;;;;;;5090518;28;20205;-78
2022/01/31 05:35:45;;;;;;;4.63;3.30;;;5.70;99.90;;;;;;5083835;28;20302;-78
2022/01/31 05:38:12;;;;;;;6.40;3.50;;;5.70;99.90;;;;;;5089848;28;20195;-79
2022/01/31 05:40:38;;;;;;;9.20;4.07;;;5.80;99.90;;;;;;5091058;28;20184;-78
2022/01/31 05:43:04;;;;;;;6.80;3.70;;;5.90;99.90;;;;;;5092493;28;20440;-78
2022/01/31 05:45:30;;;;;;;10.63;3.50;;;5.90;99.90;;;;;;5092156;28;20445;-78
2022/01/31 05:47:56;;;;;;;6.53;3.30;;;5.80;99.90;;;;;;5091323;28;20489;-79
2022/01/31 05:50:22;;;;;;;10.57;3.70;;;5.80;99.90;;;;;;5092883;28;20184;-78
2022/01/31 05:52:48;;;;;;;6.90;3.63;;;5.80;99.90;;;;;;5091473;28;20450;-79
2022/01/31 05:55:14;;;;;;;9.50;4.30;;;5.90;99.90;;;;;;5091061;28;20907;-78
2022/01/31 05:57:42;;;;;;;14.27;4.73;;;5.90;99.90;;;;;;5091506;28;20944;-79
2022/01/31 06:00:08;;;;;;;8.40;3.50;;;5.90;99.90;;;;;;5091176;28;20423;-78
2022/01/31 06:02:35;;;;;;;7.03;3.83;;;5.90;99.90;;;;;;5091201;28;20541;-79
2022/01/31 06:05:04;;;;;;;6.80;3.63;;;6.00;99.90;;;;;;5090345;28;20423;-79
2022/01/31 06:07:30;;;;;;;7.90;3.97;;;5.90;99.90;;;;;;5092122;28;20837;-79
2022/01/31 06:09:56;;;;;;;10.80;4.00;;;5.90;99.90;;;;;;5091024;28;20508;-79
2022/01/31 06:12:22;;;;;;;9.80;3.10;;;5.90;99.90;;;;;;5090379;28;20204;-78
2022/01/31 06:14:48;;;;;;;10.23;3.30;;;5.90;99.90;;;;;;5089445;28;20181;-79
2022/01/31 06:17:14;;;;;;;5.97;2.63;;;5.90;99.90;;;;;;5089848;28;20967;-79
2022/01/31 06:19:39;;;;;;;9.00;2.70;;;6.00;99.90;;;;;;5090498;28;20270;-79
2022/01/31 06:22:05;;;;;;;4.07;2.20;;;5.90;99.90;;;;;;5090380;28;20193;-79
2022/01/31 06:24:31;;;;;;;13.97;3.30;;;6.00;99.90;;;;;;5090250;28;20192;-79
2022/01/31 06:27:00;;;;;;;8.70;2.97;;;6.00;99.90;;;;;;5090162;28;20446;-79
2022/01/31 06:29:27;;;;;;;10.20;2.70;;;6.00;99.90;;;;;;5090760;28;20185;-79
2022/01/31 06:31:53;;;;;;;8.37;2.60;;;6.00;99.90;;;;;;5090886;28;20438;-79
2022/01/31 06:34:19;;;;;;;9.77;2.80;;;5.90;99.90;;;;;;5090837;28;20806;-79
2022/01/31 06:36:45;;;;;;;10.10;2.40;;;5.90;99.90;;;;;;5090351;28;20471;-79
2022/01/31 06:39:10;;;;;;;5.13;2.03;;;5.90;99.90;;;;;;5089826;28;20180;-78
2022/01/31 06:41:36;;;;;;;5.00;2.13;;;6.00;99.90;;;;;;5089573;28;20416;-79
2022/01/31 06:44:03;;;;;;;8.50;2.37;;;6.00;99.90;;;;;;5089645;28;20241;-78
2022/01/31 06:46:28;;;;;;;10.60;2.60;;;6.00;99.90;;;;;;5088329;28;20187;-79
2022/01/31 06:48:54;;;;;;;6.40;2.57;;;6.00;99.90;;;;;;5088745;28;20508;-79
2022/01/31 06:51:20;;;;;;;7.93;2.93;;;6.00;99.90;;;;;;5088885;28;20178;-78
2022/01/31 06:53:48;;;;;;;8.80;2.60;;;5.90;99.90;;;;;;5088675;28;20200;-79
2022/01/31 06:56:16;;;;;;;6.03;2.77;;;5.90;99.90;;;;;;5089060;28;20180;-79
2022/01/31 06:58:42;;;;;;;6.70;1.83;;;5.90;99.90;;;;;;5089037;28;20435;-80
2022/01/31 07:01:07;;;;;;;8.10;3.00;;;5.90;99.90;;;;;;5088328;28;20425;-79
2022/01/31 07:03:36;;;;;;;6.60;2.77;;;5.80;99.90;;;;;;5089257;28;20205;-78
2022/01/31 07:06:02;;;;;;;8.07;2.43;;;5.80;99.90;;;;;;5090157;28;20184;-79
2022/01/31 07:08:29;;;;;;;11.40;2.80;;;5.70;99.90;;;;;;5091465;28;20462;-78
2022/01/31 07:10:54;;;;;;;4.03;2.03;;;5.60;99.90;;;;;;5090967;28;20419;-78
2022/01/31 07:13:35;;;;;;;12.23;2.53;;;5.50;99.90;;;;;;5091057;28;20446;-78
2022/01/31 07:16:02;;;;;;;6.67;2.70;;;5.50;99.90;;;;;;5091479;28;20176;-78
2022/01/31 07:18:28;;;;;;;4.40;2.07;;;5.40;99.90;;;;;;5091869;28;20428;-78
2022/01/31 07:20:55;;;;;;;5.50;2.20;;;5.40;99.90;;;;;;5092287;28;20433;-78
2022/01/31 07:23:28;;;;;;;5.77;2.67;;;5.30;99.90;;;;;;5092347;28;20501;-79
2022/01/31 07:25:55;;;;;;;4.77;2.30;;;5.30;99.90;;;;;;5091883;28;20418;-78
2022/01/31 07:28:21;;;;;;;4.60;2.20;;;5.20;99.90;;;;;;5090349;28;20490;-78
2022/01/31 07:30:50;;;;;;;5.93;2.50;;;5.10;99.90;;;;;;5089308;28;20533;-77
2022/01/31 07:33:16;;;;;;;8.50;2.70;;;5.00;99.90;;;;;;5090819;28;20497;-78
2022/01/31 07:35:45;;;;;;;6.20;2.57;;;4.90;99.90;;;;;;5089942;28;20501;-78
2022/01/31 07:38:11;;;;;;;3.07;1.70;;;4.90;99.90;;;;;;5089623;28;20416;-79
2022/01/31 07:40:37;;;;;;;6.53;2.10;;;4.90;99.90;;;;;;5090863;28;20492;-79
2022/01/31 07:43:04;;;;;;;5.63;2.30;;;4.90;99.90;;;;;;5090750;28;20534;-78
2022/01/31 07:45:30;;;;;;;4.47;2.50;;;4.90;99.90;;;;;;5090651;28;20431;-78
2022/01/31 07:47:56;;;;;;;6.93;2.50;;;4.90;99.90;;;;;;5089670;28;20531;-78
2022/01/31 07:50:22;;;;;;;3.67;2.50;;;4.90;99.90;;;;;;5090755;28;20455;-78
2022/01/31 07:52:51;;;;;;;9.40;2.40;;;4.90;99.90;;;;;;5090479;28;20450;-77
2022/01/31 07:55:17;;;;;;;5.97;2.57;;;4.90;99.90;;;;;;5090563;28;20182;-77
2022/01/31 07:57:46;;;;;;;5.83;2.60;;;4.90;99.90;;;;;;5090886;28;20427;-78
2022/01/31 08:00:12;;;;;;;10.57;2.97;;;4.90;99.90;;;;;;5089056;28;21136;-78
2022/01/31 08:02:39;;;;;;;12.00;2.90;;;5.00;99.90;;;;;;5090131;28;20440;-79
2022/01/31 08:05:07;;;;;;;4.00;2.03;;;5.00;99.90;;;;;;5089738;28;20412;-78
2022/01/31 08:07:33;;;;;;;7.57;2.47;;;5.00;99.90;;;;;;5088144;28;20467;-78
2022/01/31 08:10:01;;;;;;;10.73;2.10;;;5.10;99.90;;;;;;5089365;28;20437;-79
2022/01/31 08:12:27;;;;;;;12.40;4.20;;;5.10;99.90;;;;;;5087386;28;20457;-78
2022/01/31 08:15:03;;;;;;;11.93;2.20;;;5.10;99.90;;;;;;5088915;28;20410;-78
2022/01/31 08:17:29;;;;;;;10.90;2.07;;;5.20;99.90;;;;;;5087125;28;20477;-78
2022/01/31 08:19:54;;;;;;;11.10;2.67;;;5.20;99.90;;;;;;5086889;28;20500;-79
2022/01/31 08:22:20;;;;;;;4.10;1.67;;;5.20;99.90;;;;;;5089097;28;20210;-78
2022/01/31 08:24:46;;;;;;;8.57;2.37;;;5.20;99.90;;;;;;5088466;28;20186;-79
2022/01/31 08:27:11;;;;;;;9.33;2.30;;;5.30;99.90;;;;;;5090393;28;20640;-79
2022/01/31 08:29:39;;;;;;;8.23;2.50;;;5.30;99.90;;;;;;5092970;28;20185;-79
2022/01/31 08:32:14;;;;;;;8.03;6.23;;;5.30;99.90;;;;;;5091169;28;20194;-78
2022/01/31 08:37:25;;;;;;;10.30;2.13;;;5.40;99.90;;;;;;5108722;28;20525;-79
2022/01/31 08:39:51;;;;;;;4.83;2.43;;;5.40;99.90;;;;;;5090163;28;20442;-78
2022/01/31 08:42:17;;;;;;;6.97;2.80;;;5.40;99.90;;;;;;5092744;28;20448;-79
2022/01/31 08:44:42;;;;;;;9.90;2.90;;;5.40;99.90;;;;;;5092808;28;20425;-78
2022/01/31 08:47:08;;;;;;;3.30;1.80;;;5.30;99.90;;;;;;5092282;28;20253;-79
2022/01/31 08:49:36;;;;;;;8.93;2.90;;;5.30;99.90;;;;;;5092240;28;20176;-79
2022/01/31 08:52:03;;;;;;;7.37;2.50;;;5.30;99.90;;;;;;5092722;28;20596;-79
2022/01/31 08:54:29;;;;;;;7.43;2.70;;;5.30;99.90;;;;;;5093809;28;20616;-79
2022/01/31 08:56:55;;;;;;;6.97;2.87;;;5.20;99.90;;;;;;5094649;28;20422;-78
2022/01/31 08:59:24;;;;;;;4.30;2.47;;;5.20;99.90;;;;;;5094892;28;20205;-78
2022/01/31 09:02:03;;;;;;;8.63;2.70;;;5.10;99.90;;;;;;5094392;28;20185;-78
2022/01/31 09:04:47;;;;;;;7.60;2.37;;;5.00;99.90;;;;;;5094454;28;20435;-79
2022/01/31 09:07:18;;;;;;;6.40;2.23;;;5.00;99.90;;;;;;5093671;28;20456;-79
2022/01/31 09:09:44;;;;;;;4.83;2.27;;;4.90;99.90;;;;;;5093084;28;20430;-77
2022/01/31 09:12:11;;;;;;;7.97;2.47;;;4.90;99.90;;;;;;5092620;28;20479;-79
2022/01/31 09:14:37;;;;;;;11.30;2.70;;;4.90;99.90;;;;;;5091967;28;20408;-79
2022/01/31 09:17:03;;;;;;;5.53;2.90;;;4.90;99.90;;;;;;5092039;28;20404;-79
2022/01/31 09:19:29;;;;;;;8.77;3.40;;;4.90;99.90;;;;;;5091454;28;20416;-80
2022/01/31 09:21:55;;;;;;;8.17;2.40;;;4.90;99.90;;;;;;5091206;28;20413;-79
2022/01/31 09:24:21;;;;;;;4.07;2.30;;;4.90;99.90;;;;;;5091413;28;20408;-79
2022/01/31 09:26:47;;;;;;;6.67;2.87;;;4.90;99.90;;;;;;5090834;28;20249;-79
2022/01/31 09:29:13;;;;;;;8.23;2.77;;;4.90;99.90;;;;;;5091300;28;20179;-78
2022/01/31 09:31:39;;;;;;;9.13;2.67;;;4.90;99.90;;;;;;5044969;28;1134644;-78
2022/01/31 09:34:06;;;;;;;8.23;2.90;;;4.90;99.90;;;;;;5083550;28;20191;-79
2022/01/31 09:36:32;;;;;;;5.43;2.13;;;4.90;99.90;;;;;;5092790;28;20421;-79
2022/01/31 09:38:58;;;;;;;8.50;2.43;;;4.90;99.90;;;;;;5092191;28;20428;-80
2022/01/31 09:41:27;;;;;;;13.10;2.90;;;4.90;99.90;;;;;;5092571;28;20436;-78
2022/01/31 09:44:20;;;;;;;6.60;2.50;;;4.90;99.90;;;;;;5092616;28;20199;-78
2022/01/31 09:47:20;;;;;;;5.33;2.27;;;4.80;99.90;;;;;;5091997;28;20636;-79
2022/01/31 09:49:32;;;;;;;6.50;2.30;;;4.80;99.90;;;;;;5109803;28;20442;-78
2022/01/31 09:51:58;;;;;;;10.33;2.93;;;4.80;99.90;;;;;;5091214;28;20774;-79
2022/01/31 09:54:27;;;;;;;9.00;2.10;;;4.80;99.90;;;;;;5092011;28;20449;-79
2022/01/31 09:56:53;;;;;;;6.93;2.13;;;4.80;99.90;;;;;;5090786;28;20474;-80
2022/01/31 09:59:19;;;;;;;9.87;2.77;;;4.80;99.90;;;;;;5090939;28;20430;-78
2022/01/31 10:01:55;;;;;;;7.93;2.60;;;4.80;99.90;;;;;;5090907;28;20435;-78
2022/01/31 10:04:28;;;;;;;6.67;2.73;;;4.80;99.90;;;;;;5090736;28;20450;-78
2022/01/31 10:06:57;;;;;;;10.53;3.13;;;4.90;99.90;;;;;;5091421;28;20427;-78
2022/01/31 10:09:29;;;;;;;9.20;2.57;;;4.90;99.90;;;;;;5089441;28;20416;-78
2022/01/31 10:12:18;;;;;;;15.83;2.97;;;4.90;99.90;;;;;;5090655;28;20449;-78
2022/01/31 10:17:44;;;;;;;12.33;2.73;;;4.90;99.90;;;;;;5109408;28;20453;-80
2022/01/31 10:20:18;;;;;;;9.93;3.13;;;4.90;99.90;;;;;;5091230;28;20407;-78
2022/01/31 10:22:45;;;;;;;5.83;1.87;;;4.90;99.90;;;;;;5090752;28;20542;-78
2022/01/31 10:25:13;;;;;;;11.43;2.00;;;4.90;99.90;;;;;;5090717;28;20935;-78
2022/01/31 10:27:46;;;;;;;11.97;3.10;;;4.90;99.90;;;;;;5090818;28;20460;-79
2022/01/31 10:30:15;;;;;;;11.70;2.63;;;4.90;99.90;;;;;;5089927;28;20410;-78
2022/01/31 10:32:43;;;;;;;4.90;1.70;;;4.90;99.90;;;;;;5089382;28;20460;-78
2022/01/31 10:35:13;;;;;;;5.37;2.70;;;4.80;99.90;;;;;;5090192;28;20404;-80
2022/01/31 10:37:43;;;;;;;5.23;2.03;;;4.80;99.90;;;;;;5091118;28;20488;-78
2022/01/31 10:46:07;;;;;;;8.93;3.27;;;4.80;99.90;;;;;;5111048;28;20849;-78
2022/01/31 10:56:51;;;;;;;9.13;2.97;;;4.90;99.90;;;;;;5107942;28;20416;-79
2022/01/31 10:59:34;;;;;;;8.50;4.10;;;4.90;99.90;;;;;;5089236;28;20416;-78
2022/01/31 11:02:02;;;;;;;10.13;3.20;;;5.00;99.90;;;;;;5089889;28;20440;-78
2022/01/31 11:04:36;;;;;;;11.37;2.77;;;5.00;99.90;;;;;;5086478;28;20431;-79
2022/01/31 11:07:08;;;;;;;14.17;3.70;;;5.00;99.90;;;;;;5086032;28;20476;-79
2022/01/31 11:09:34;;;;;;;18.83;3.60;;;5.00;99.90;;;;;;5086795;28;20409;-79
2022/01/31 11:12:01;;;;;;;8.83;3.30;;;5.00;99.90;;;;;;5085140;28;20423;-78
2022/01/31 11:14:27;;;;;;;5.83;2.00;;;5.10;99.90;;;;;;5084578;28;20454;-79
2022/01/31 11:16:57;;;;;;;5.70;2.40;;;5.00;99.90;;;;;;5086427;28;20429;-78
2022/01/31 11:19:32;;;;;;;5.60;1.83;;;5.10;99.90;;;;;;5093439;28;20489;-79
2022/01/31 11:22:05;;;;;;;11.60;2.57;;;5.10;99.90;;;;;;5093312;28;20450;-78
2022/01/31 11:24:59;;;;;;;9.20;2.17;;;5.10;99.90;;;;;;5093104;28;20426;-79
2022/01/31 11:27:27;;;;;;;4.97;2.17;;;5.10;99.90;;;;;;5089120;28;20463;-80
2022/01/31 11:29:56;;;;;;;7.30;2.60;;;5.10;99.90;;;;;;5091997;28;20497;-80
2022/01/31 11:32:23;;;;;;;7.00;1.93;;;5.10;99.90;;;;;;5091233;28;20478;-78
2022/01/31 11:34:49;;;;;;;7.63;4.00;;;5.10;99.90;;;;;;5091216;28;20447;-79
2022/01/31 11:37:17;;;;;;;12.87;2.73;;;5.10;99.90;;;;;;5090363;28;20434;-79
2022/01/31 11:39:52;;;;;;;10.67;2.90;;;5.20;99.90;;;;;;5091518;28;20425;-78
2022/01/31 11:42:20;;;;;;;10.47;3.23;;;5.20;99.90;;;;;;5089517;28;20881;-79
2022/01/31 11:44:52;;;;;;;13.13;3.50;;;5.30;99.90;;;;;;5090342;28;20425;-78
2022/01/31 11:47:23;;;;;;;5.70;2.50;;;5.30;99.90;;;;;;5090740;28;20464;-78
2022/01/31 11:49:56;;;;;;;11.57;2.90;;;5.30;99.90;;;;;;5090642;28;20481;-78
2022/01/31 11:52:24;;;;;;;6.30;2.80;;;5.30;99.90;;;;;;5093158;28;20529;-79
2022/01/31 11:54:51;;;;;;;10.73;2.87;;;5.30;99.90;;;;;;5092746;28;20422;-79
2022/01/31 11:57:19;;;;;;;7.53;3.23;;;5.30;99.90;;;;;;5092244;28;20520;-79
2022/01/31 11:59:50;;;;;;;14.47;3.60;;;5.20;99.90;;;;;;5092550;28;20419;-80
2022/01/31 12:02:19;;;;;;;11.47;4.90;;;5.20;99.90;;;;;;5092100;28;20436;-79
2022/01/31 12:04:49;;;;;;;7.53;2.40;;;5.20;99.90;;;;;;5091805;28;20417;-80
2022/01/31 12:07:39;;;;;;;11.97;2.90;;;5.30;99.90;;;;;;5091383;28;20461;-79
2022/01/31 12:10:08;;;;;;;12.37;2.87;;;5.30;99.90;;;;;;5092358;28;20421;-78
2022/01/31 12:12:51;;;;;;;12.50;5.30;;;5.30;99.90;;;;;;5091469;28;20482;-79
2022/01/31 12:24:11;;;;;;;12.93;3.43;;;5.40;99.90;;;;;;5112404;28;20459;-79
2022/01/31 12:26:40;;;;;;;9.20;5.60;;;5.30;99.90;;;;;;5093162;28;20471;-79
2022/01/31 12:29:15;;;;;;;7.47;3.30;;;5.30;99.90;;;;;;5093079;28;20490;-79
2022/01/31 12:31:54;;;;;;;11.93;3.30;;;5.40;99.90;;;;;;5092686;28;20526;-79
2022/01/31 12:34:22;;;;;;;12.70;3.80;;;5.40;99.90;;;;;;5092421;28;20424;-78
2022/01/31 12:37:00;;;;;;;8.13;3.17;;;5.40;99.90;;;;;;5091141;28;20771;-78
2022/01/31 12:39:36;;;;;;;10.83;3.50;;;5.40;99.90;;;;;;5091949;28;20941;-79
2022/01/31 12:45:22;;;;;;;12.23;2.80;;;5.40;99.90;;;;;;5110132;28;20739;-79
2022/01/31 12:48:12;;;;;;;9.93;2.87;;;5.30;99.90;;;;;;5090836;28;20465;-79
2022/01/31 12:50:45;;;;;;;14.40;3.57;;;5.30;99.90;;;;;;5092315;28;20418;-79
2022/01/31 12:53:23;;;;;;;9.30;3.03;;;5.30;99.90;;;;;;5090864;28;20443;-78
2022/01/31 12:56:22;;;;;;;11.10;4.47;;;5.30;99.90;;;;;;5092289;28;20489;-79
2022/01/31 12:58:51;;;;;;;9.23;2.40;;;5.30;99.90;;;;;;5091527;28;20448;-80
2022/01/31 13:01:27;;;;;;;15.50;3.50;;;5.30;99.90;;;;;;5091923;28;20450;-79
2022/01/31 13:04:02;;;;;;;12.10;3.13;;;5.30;99.90;;;;;;5090496;28;20437;-79
2022/01/31 13:06:37;;;;;;;13.20;3.40;;;5.30;99.90;;;;;;5090219;28;20423;-80
2022/01/31 13:09:24;;;;;;;5.43;3.60;;;5.30;99.90;;;;;;5090412;28;20504;-80
2022/01/31 13:11:53;;;;;;;7.00;3.10;;;5.30;99.90;;;;;;5090867;28;20426;-78
2022/01/31 13:14:27;;;;;;;11.43;3.10;;;5.30;99.90;;;;;;5090631;28;20425;-78
2022/01/31 13:17:10;;;;;;;8.57;3.10;;;5.40;99.90;;;;;;5090688;28;20497;-79
2022/01/31 13:19:45;;;;;;;7.17;2.80;;;5.40;99.90;;;;;;5091188;28;20425;-78
2022/01/31 13:22:24;;;;;;;11.57;2.60;;;5.30;99.90;;;;;;5090572;28;20419;-79
2022/01/31 13:24:54;;;;;;;8.47;2.70;;;5.30;99.90;;;;;;5089910;28;20429;-79
2022/01/31 13:27:36;;;;;;;22.20;3.13;;;5.40;99.90;;;;;;5106669;28;20463;-79
2022/01/31 13:30:07;;;;;;;12.13;3.07;;;5.40;99.90;;;;;;5090847;28;20425;-79
2022/01/31 13:32:35;;;;;;;7.37;2.87;;;5.40;99.90;;;;;;5090826;28;20456;-78
2022/01/31 13:35:14;;;;;;;13.57;3.43;;;5.30;99.90;;;;;;5089960;28;20421;-78